createdAt,value
2022-12-18T00:02:35.000Z,99424.92
2022-12-18T00:07:35.000Z,99419.43
2022-12-18T00:12:35.000Z,99406.49
2022-12-18T00:17:34.000Z,99393.34
2022-12-18T00:22:35.000Z,99393.34
2022-12-18T00:32:34.000Z,99369.93
2022-12-18T00:37:34.000Z,99357.83
2022-12-18T00:42:35.000Z,99348.51
2022-12-18T00:47:34.000Z,99341.65
2022-12-18T00:52:34.000Z,99333.43
2022-12-18T00:57:35.000Z,99323.61
2022-12-18T01:02:35.000Z,99310.52
2022-12-18T01:07:35.000Z,99301.7
2022-12-18T01:12:34.000Z,99286
2022-12-18T01:17:34.000Z,99272.96
2022-12-18T01:22:35.000Z,99254.78
2022-12-18T01:27:34.000Z,99254.78
2022-12-18T01:32:35.000Z,99232.48
2022-12-18T01:37:35.000Z,99232.78
2022-12-18T01:42:34.000Z,99237.82
2022-12-18T01:47:35.000Z,99238.84
2022-12-18T01:52:34.000Z,99232.65
2022-12-18T01:57:35.000Z,99236.31
2022-12-18T02:02:35.000Z,99233.44
2022-12-18T02:07:35.000Z,99229.18
2022-12-18T02:12:35.000Z,99224.62
2022-12-18T02:17:35.000Z,99218
2022-12-18T02:22:35.000Z,99218.58
2022-12-18T02:27:35.000Z,99220.7
2022-12-18T02:32:34.000Z,99218.65
2022-12-18T02:37:35.000Z,99214.89
2022-12-18T02:42:34.000Z,99214.89
2022-12-18T02:47:35.000Z,99199.08
2022-12-18T02:52:35.000Z,99200.43
2022-12-18T02:57:35.000Z,99204.71
2022-12-18T03:02:35.000Z,99204.04
2022-12-18T03:07:35.000Z,99219.27
2022-12-18T03:12:35.000Z,99225.81
2022-12-18T03:17:35.000Z,99219.97
2022-12-18T03:22:34.000Z,99214.67
2022-12-18T03:27:35.000Z,99190.9
2022-12-18T03:32:34.000Z,99194.18
2022-12-18T03:37:35.000Z,99207.38
2022-12-18T03:42:35.000Z,99221.86
2022-12-18T03:47:34.000Z,99224.49
2022-12-18T03:57:34.000Z,99210.45
2022-12-18T04:02:35.000Z,99200.05
2022-12-18T04:07:34.000Z,99205.78
2022-12-18T04:12:35.000Z,99210.03
2022-12-18T04:17:34.000Z,99220.68
2022-12-18T04:22:35.000Z,99209.73
2022-12-18T04:32:35.000Z,99209.59
2022-12-18T04:37:35.000Z,99214.91
2022-12-18T04:42:35.000Z,99243.82
2022-12-18T04:47:35.000Z,99252.29
2022-12-18T04:52:34.000Z,99249.64
2022-12-18T04:57:35.000Z,99255.69
2022-12-18T05:02:34.000Z,99286.92
2022-12-18T05:07:34.000Z,99298.8
2022-12-18T05:12:35.000Z,99321.16
2022-12-18T05:17:34.000Z,99321.16
2022-12-18T05:22:35.000Z,99329.91
2022-12-18T05:27:34.000Z,99337.3
2022-12-18T05:32:35.000Z,99339.73
2022-12-18T05:37:35.000Z,99338.91
2022-12-18T05:47:34.000Z,99332.23
2022-12-18T05:52:34.000Z,99343.37
2022-12-18T05:57:35.000Z,99354.7
2022-12-18T06:02:35.000Z,99354.67
2022-12-18T06:07:35.000Z,99359.23
2022-12-18T06:12:35.000Z,99380.07
2022-12-18T06:17:34.000Z,99384.24
2022-12-18T06:22:34.000Z,99385.72
2022-12-18T06:27:35.000Z,99399.07
2022-12-18T06:32:35.000Z,99407.59
2022-12-18T06:37:35.000Z,99413.16
2022-12-18T06:42:34.000Z,99413.16
2022-12-18T06:47:35.000Z,99405.29
2022-12-18T06:52:35.000Z,99407.6
2022-12-18T06:57:34.000Z,99421.55
2022-12-18T07:02:35.000Z,99439.73
2022-12-18T07:07:34.000Z,99457.81
2022-12-18T07:12:34.000Z,99470.72
2022-12-18T07:17:35.000Z,99484.65
2022-12-18T07:22:34.000Z,99486.09
2022-12-18T07:27:35.000Z,99494.38
2022-12-18T07:32:34.000Z,99500.09
2022-12-18T07:37:35.000Z,99505.38
2022-12-18T07:42:36.000Z,99514.34
2022-12-18T07:47:35.000Z,99526
2022-12-18T07:52:36.000Z,99539.14
2022-12-18T07:58:00.000Z,99543.58
2022-12-18T08:02:35.000Z,99543.58
2022-12-18T08:07:34.000Z,99538.16
2022-12-18T08:12:34.000Z,99544.67
2022-12-18T08:17:35.000Z,99548.78
2022-12-18T08:27:40.000Z,99564.63
2022-12-18T08:32:35.000Z,99582.35
2022-12-18T08:37:34.000Z,99594.03
2022-12-18T08:42:35.000Z,99602.01
2022-12-18T08:47:34.000Z,99602.01
2022-12-18T08:52:35.000Z,99614.46
2022-12-18T08:57:35.000Z,99627.14
2022-12-18T09:02:35.000Z,99640.52
2022-12-18T09:07:35.000Z,99649.39
2022-12-18T09:12:35.000Z,99656.35
2022-12-18T09:17:35.000Z,99653.56
2022-12-18T09:22:35.000Z,99654.09
2022-12-18T09:27:34.000Z,99659.84
2022-12-18T09:32:35.000Z,99670.88
2022-12-18T09:37:35.000Z,99669.34
2022-12-18T09:42:35.000Z,99679.66
2022-12-18T09:47:34.000Z,99689.01
2022-12-18T09:52:34.000Z,99698.76
2022-12-18T09:57:35.000Z,99698.76
2022-12-18T10:02:35.000Z,99699.16
2022-12-18T10:07:34.000Z,99701.87
2022-12-18T10:12:35.000Z,99708.23
2022-12-18T10:17:34.000Z,99715.15
2022-12-18T10:22:35.000Z,99711.88
2022-12-18T10:27:34.000Z,99719.24
2022-12-18T10:32:34.000Z,99719.25
2022-12-18T10:42:34.000Z,99727.4
2022-12-18T10:47:35.000Z,99732.78
2022-12-18T10:52:35.000Z,99730.17
2022-12-18T10:57:34.000Z,99723.98
2022-12-18T11:02:35.000Z,99742.45
2022-12-18T11:07:34.000Z,99758.84
2022-12-18T11:12:35.000Z,99774.76
2022-12-18T11:17:37.000Z,99794.54
2022-12-18T11:22:34.000Z,99805.87
2022-12-18T11:27:35.000Z,99803.99
2022-12-18T11:32:34.000Z,99803.99
2022-12-18T11:37:35.000Z,99802.83
2022-12-18T11:42:34.000Z,99808
2022-12-18T11:52:34.000Z,99824.7
2022-12-18T11:57:35.000Z,99836.72
2022-12-18T12:02:35.000Z,99847.46
2022-12-18T12:07:35.000Z,99848.32
2022-12-18T12:12:35.000Z,99857
2022-12-18T12:17:35.000Z,99875.33
2022-12-18T12:22:35.000Z,99887.07
2022-12-18T12:27:35.000Z,99894.64
2022-12-18T12:32:34.000Z,99900.24
2022-12-18T12:37:35.000Z,99900.4
2022-12-18T12:42:35.000Z,99916.37
2022-12-18T12:47:35.000Z,99922.93
2022-12-18T12:52:35.000Z,99922.93
2022-12-18T12:57:35.000Z,99932.44
2022-12-18T13:02:35.000Z,99938.66
2022-12-18T13:07:34.000Z,99955.51
2022-12-18T13:12:35.000Z,99968.22
2022-12-18T13:17:35.000Z,99974.91
2022-12-18T13:22:35.000Z,99989.93
2022-12-18T13:27:34.000Z,100003.11
2022-12-18T13:32:36.000Z,100007.13
2022-12-18T13:42:35.000Z,100030.3
2022-12-18T13:47:35.000Z,100031.79
2022-12-18T13:52:35.000Z,100031.79
2022-12-18T13:57:35.000Z,100053.11
2022-12-18T14:02:35.000Z,100065.17
2022-12-18T14:07:34.000Z,100073
2022-12-18T14:12:35.000Z,100083.08
2022-12-18T14:17:35.000Z,100087.67
2022-12-18T14:22:35.000Z,100105.43
2022-12-18T14:27:35.000Z,100111.15
2022-12-18T14:32:34.000Z,100117.61
2022-12-18T14:37:35.000Z,100124.87
2022-12-18T14:42:35.000Z,100129.55
2022-12-18T14:47:34.000Z,100138.23
2022-12-18T14:52:35.000Z,100147.63
2022-12-18T14:57:34.000Z,100159.25
2022-12-18T15:02:35.000Z,100159.25
2022-12-18T15:07:34.000Z,100174.28
2022-12-18T15:12:35.000Z,100191.5
2022-12-18T15:17:36.000Z,100194.72
2022-12-18T15:22:34.000Z,100210
2022-12-18T15:27:35.000Z,100220.34
2022-12-18T15:32:35.000Z,100228.04
2022-12-18T15:37:35.000Z,100236.71
2022-12-18T15:42:35.000Z,100229.97
2022-12-18T15:47:34.000Z,100242.5
2022-12-18T15:52:34.000Z,100252.62
2022-12-18T15:57:35.000Z,100262.68
2022-12-18T16:02:35.000Z,100266.39
2022-12-18T16:07:38.000Z,100272.79
2022-12-18T16:17:35.000Z,100293.09
2022-12-18T16:22:35.000Z,100304.95
2022-12-18T16:27:34.000Z,100313.49
2022-12-18T16:32:34.000Z,100326.5
2022-12-18T16:37:35.000Z,100339.25
2022-12-18T16:42:35.000Z,100349.28
2022-12-18T16:47:34.000Z,100358.57
2022-12-18T16:52:35.000Z,100365.27
2022-12-18T16:57:35.000Z,100365.27
2022-12-18T17:02:35.000Z,100373.96
2022-12-18T17:07:35.000Z,100381.17
2022-12-18T17:12:35.000Z,100392.44
2022-12-18T17:17:34.000Z,100403.29
2022-12-18T17:22:35.000Z,100411.57
2022-12-18T17:27:35.000Z,100417.8
2022-12-18T17:32:34.000Z,100429.29
2022-12-18T17:37:35.000Z,100437.72
2022-12-18T17:47:34.000Z,100447.5
2022-12-18T17:52:35.000Z,100462.31
2022-12-18T17:57:34.000Z,100472.33
2022-12-18T18:02:35.000Z,100484.24
2022-12-18T18:07:35.000Z,100492.22
2022-12-18T18:12:34.000Z,100494.45
2022-12-18T18:17:35.000Z,100503.86
2022-12-18T18:22:35.000Z,100518.69
2022-12-18T18:27:35.000Z,100525.29
2022-12-18T18:32:35.000Z,100538.43
2022-12-18T18:37:35.000Z,100546.53
2022-12-18T18:42:35.000Z,100546.53
2022-12-18T18:47:35.000Z,100553.47
2022-12-18T18:52:34.000Z,100560.35
2022-12-18T18:57:40.000Z,100569.94
2022-12-18T19:12:34.000Z,100594.94
2022-12-18T19:17:40.000Z,100601.57
2022-12-18T19:22:34.000Z,100614.42
2022-12-18T19:27:35.000Z,100631.74
2022-12-18T19:32:35.000Z,100647.58
2022-12-18T19:37:36.000Z,100660.5
2022-12-18T19:42:41.000Z,100672.03
2022-12-18T19:47:34.000Z,100676.48
2022-12-18T19:52:35.000Z,100683.88
2022-12-18T19:57:35.000Z,100690.32
2022-12-18T20:02:35.000Z,100691.83
2022-12-18T20:07:34.000Z,100695.4
2022-12-18T20:12:35.000Z,100710.62
2022-12-18T20:17:36.000Z,100723
2022-12-18T20:22:34.000Z,100723
2022-12-18T20:27:35.000Z,100724.51
2022-12-18T20:32:34.000Z,100738.21
2022-12-18T20:37:36.000Z,100744.25
2022-12-18T20:42:35.000Z,100750.09
2022-12-18T20:47:35.000Z,100750.4
2022-12-18T20:52:34.000Z,100749.48
2022-12-18T20:57:35.000Z,100750.45
2022-12-18T21:02:34.000Z,100756.35
2022-12-18T21:07:34.000Z,100758.42
2022-12-18T21:12:35.000Z,100765.47
2022-12-18T21:17:37.000Z,100767.79
2022-12-18T21:22:34.000Z,100763.87
2022-12-18T21:27:35.000Z,100769.54
2022-12-18T21:32:37.000Z,100773.08
2022-12-18T21:37:35.000Z,100773.08
2022-12-18T21:42:35.000Z,100783.68
2022-12-18T21:47:35.000Z,100790.13
2022-12-18T21:52:42.000Z,100793.68
2022-12-18T21:57:35.000Z,100796.4
2022-12-18T22:02:34.000Z,100801.56
2022-12-18T22:07:35.000Z,100802.73
2022-12-18T22:12:35.000Z,100809.3
2022-12-18T22:17:35.000Z,100809.11
2022-12-18T22:22:34.000Z,100820.99
2022-12-18T22:27:35.000Z,100827.92
2022-12-18T22:32:41.000Z,100827.84
2022-12-18T22:37:35.000Z,100822.53
2022-12-18T22:42:35.000Z,100820.6
2022-12-18T22:47:40.000Z,100819.47
2022-12-18T22:52:35.000Z,100826.18
2022-12-18T22:57:35.000Z,100826.18
2022-12-18T23:02:35.000Z,100836.07
2022-12-18T23:07:34.000Z,100841.66
2022-12-18T23:12:35.000Z,100849.94
2022-12-18T23:17:35.000Z,100847.02
2022-12-18T23:22:35.000Z,100851.65
2022-12-18T23:27:34.000Z,100844.87
2022-12-18T23:32:35.000Z,100855.84
2022-12-18T23:38:08.000Z,100867.41
2022-12-18T23:42:37.000Z,100874.65
2022-12-18T23:47:35.000Z,100875.67
2022-12-18T23:52:35.000Z,100885.81
2022-12-18T23:57:36.000Z,100893
